Shafter, Texas
Current Conditions -  °F | °C
As of 3:15 AM on Thursday 23 Oct 2014 (Local Time) from KPRS Reporting Station
Clear Clear  
Wind Chill: 64°   Ceiling: Unl
Heat Index: 64°   Visibility: 10mi
Dew Point: 60°   Wind: 5mph
Humidity: 85%   Direction: 20°NNE
Pressure: 30.13"   Gusts: NA
Location:  29.82°N, 104.3°W
Report Text: KPRS 230815Z AUTO 02004KT 10SM CLR 18/16 A3013 RMK AO2 T01800155
Loading
Personal Weather Stations






























Interactive Weather Map
Tropical Storm Tracking
New forecast layout! Learn more

10-Day Weather Forecast

Advertisements
Track Severe Weather on mobile